Time;durP1;ratioP1;P1;durP2;ratioP2;P2;SDS_P1;SDS_P2;PMS_P1;PMS_P2;Temp;Humidity;BMP_temperature;BMP_pressure;BME280_temperature;BME280_humidity;BME280_pressure;Samples;Min_cycle;Max_cycle;Signal;HPM_P1;HPM_P2
2021/10/27 00:00:20;;;;;;;10.40;8.30;;;12.60;99.90;;;;;;4972385;28;20180;-74
2021/10/27 00:02:45;;;;;;;11.17;10.07;;;12.60;99.90;;;;;;4971270;28;20540;-74
2021/10/27 00:05:13;;;;;;;9.87;8.93;;;12.60;99.90;;;;;;4971929;28;20203;-75
2021/10/27 00:07:38;;;;;;;11.13;10.03;;;12.60;99.90;;;;;;4972122;28;20200;-75
2021/10/27 00:10:05;;;;;;;10.60;9.60;;;12.60;99.90;;;;;;4971275;28;20487;-74
2021/10/27 00:12:30;;;;;;;11.30;9.60;;;12.60;99.90;;;;;;4972088;28;20283;-74
2021/10/27 00:14:56;;;;;;;10.70;9.40;;;12.60;99.90;;;;;;4971599;28;20440;-74
2021/10/27 00:17:22;;;;;;;10.13;8.37;;;12.60;99.90;;;;;;4972525;28;20181;-74
2021/10/27 00:19:47;;;;;;;10.20;8.70;;;12.60;99.90;;;;;;4971852;28;20193;-75
2021/10/27 00:22:13;;;;;;;9.17;8.23;;;12.60;99.90;;;;;;4972001;28;20411;-74
2021/10/27 00:24:39;;;;;;;9.20;8.30;;;12.60;99.90;;;;;;4972217;28;20170;-74
2021/10/27 00:27:07;;;;;;;9.80;8.80;;;12.60;99.90;;;;;;4970705;28;20200;-74
2021/10/27 00:29:36;;;;;;;9.93;8.70;;;12.60;99.90;;;;;;4971834;28;20757;-75
2021/10/27 00:32:01;;;;;;;13.77;9.03;;;12.70;99.90;;;;;;4972297;28;20499;-74
2021/10/27 00:34:27;;;;;;;10.53;7.83;;;12.60;99.90;;;;;;4975493;28;20511;-75
2021/10/27 00:36:52;;;;;;;9.43;7.97;;;12.60;99.90;;;;;;4984308;28;20181;-74
2021/10/27 00:39:18;;;;;;;10.10;8.23;;;12.60;99.90;;;;;;4975946;28;20239;-75
2021/10/27 00:41:44;;;;;;;9.90;8.73;;;12.60;99.90;;;;;;5061855;22;20261;-73
2021/10/27 00:44:18;;;;;;;9.87;8.90;;;12.60;99.90;;;;;;5054510;28;20178;-73
2021/10/27 00:46:43;;;;;;;15.60;9.23;;;12.50;99.90;;;;;;5031924;28;20488;-73
2021/10/27 00:49:09;;;;;;;10.90;8.57;;;12.60;99.90;;;;;;5033584;28;20437;-73
2021/10/27 00:51:34;;;;;;;9.30;8.30;;;12.60;99.90;;;;;;5033077;28;20651;-73
2021/10/27 00:54:02;;;;;;;10.03;8.93;;;12.60;99.90;;;;;;5032945;28;20206;-73
2021/10/27 00:56:28;;;;;;;11.90;10.20;;;12.60;99.90;;;;;;5033066;28;20174;-73
2021/10/27 00:58:54;;;;;;;15.67;11.30;;;12.60;99.90;;;;;;5031946;28;20418;-73
2021/10/27 01:01:20;;;;;;;10.67;9.57;;;12.60;99.90;;;;;;5033131;28;20466;-74
2021/10/27 01:03:46;;;;;;;11.90;10.70;;;12.60;99.90;;;;;;5033557;28;20933;-73
2021/10/27 01:06:12;;;;;;;12.47;10.80;;;12.60;99.90;;;;;;5031913;28;20410;-72
2021/10/27 01:08:37;;;;;;;12.63;11.18;;;12.70;99.90;;;;;;5032852;28;20962;-73
2021/10/27 01:11:05;;;;;;;12.67;10.73;;;12.60;99.90;;;;;;5033113;28;20186;-73
2021/10/27 01:13:31;;;;;;;12.00;10.10;;;12.70;99.90;;;;;;5033271;28;20171;-73
2021/10/27 01:15:58;;;;;;;12.30;10.47;;;12.70;99.90;;;;;;5032504;28;20402;-71
2021/10/27 01:18:23;;;;;;;12.93;11.47;;;12.70;99.90;;;;;;5031464;28;20497;-71
2021/10/27 01:20:49;;;;;;;11.47;10.37;;;12.70;99.90;;;;;;5032969;28;20989;-71
2021/10/27 01:23:15;;;;;;;11.10;10.00;;;12.70;99.90;;;;;;5032905;28;20207;-72
2021/10/27 01:25:41;;;;;;;13.40;10.63;;;12.80;99.90;;;;;;5032625;28;20209;-72
2021/10/27 01:28:07;;;;;;;10.90;9.80;;;12.80;99.90;;;;;;5034967;28;21089;-72
2021/10/27 01:30:33;;;;;;;13.47;10.63;;;12.80;99.90;;;;;;5044870;28;20433;-72
2021/10/27 01:32:58;;;;;;;12.33;10.67;;;12.90;99.90;;;;;;5024539;28;20175;-72
2021/10/27 01:35:24;;;;;;;10.60;9.50;;;12.90;99.90;;;;;;5033838;28;20170;-71
2021/10/27 01:37:49;;;;;;;12.90;10.33;;;12.80;99.90;;;;;;5056404;28;20312;-72
2021/10/27 01:40:18;;;;;;;11.17;9.80;;;12.90;99.90;;;;;;5063420;28;20213;-72
2021/10/27 01:42:45;;;;;;;10.50;9.40;;;12.90;99.90;;;;;;5052726;28;20551;-71
2021/10/27 01:45:12;;;;;;;10.07;8.97;;;13.00;99.90;;;;;;5052579;28;20420;-72
2021/10/27 01:47:42;;;;;;;12.70;8.17;;;12.90;99.90;;;;;;5052786;28;20443;-72
2021/10/27 01:50:08;;;;;;;14.00;9.50;;;13.00;99.90;;;;;;5052377;28;20417;-71
2021/10/27 01:52:34;;;;;;;9.53;8.67;;;12.90;99.90;;;;;;5035073;28;20416;-72
2021/10/27 01:55:00;;;;;;;10.40;8.57;;;12.90;99.90;;;;;;5034587;28;20408;-71
2021/10/27 01:57:26;;;;;;;10.40;9.17;;;12.90;99.90;;;;;;5035031;28;20540;-72
2021/10/27 01:59:52;;;;;;;9.37;8.37;;;12.90;99.90;;;;;;5052508;28;20942;-72
2021/10/27 02:02:17;;;;;;;8.80;8.00;;;12.80;99.90;;;;;;5052737;28;20401;-72
2021/10/27 02:04:43;;;;;;;9.33;8.33;;;12.80;99.90;;;;;;5034568;28;20170;-71
2021/10/27 02:07:08;;;;;;;8.33;7.53;;;12.80;99.90;;;;;;5052788;28;20247;-72
2021/10/27 02:09:36;;;;;;;8.40;7.57;;;12.80;99.90;;;;;;5052633;28;20642;-72
2021/10/27 02:12:02;;;;;;;7.67;6.93;;;12.90;99.90;;;;;;5051703;28;20198;-72
2021/10/27 02:14:28;;;;;;;9.37;8.37;;;12.90;99.90;;;;;;5052083;28;20404;-72
2021/10/27 02:16:53;;;;;;;9.57;8.07;;;12.90;99.90;;;;;;5050847;28;20411;-71
2021/10/27 02:19:19;;;;;;;9.63;7.40;;;13.00;99.90;;;;;;5033628;28;20181;-71
2021/10/27 02:21:44;;;;;;;8.27;7.47;;;13.00;99.90;;;;;;5051631;28;20194;-72
2021/10/27 02:24:10;;;;;;;9.03;7.80;;;12.90;99.90;;;;;;5051790;28;20166;-71
2021/10/27 02:26:36;;;;;;;11.50;8.00;;;13.00;99.90;;;;;;5051638;28;20188;-72
2021/10/27 02:29:02;;;;;;;10.80;7.07;;;13.00;99.90;;;;;;5052040;28;20406;-71
2021/10/27 02:31:27;;;;;;;9.50;7.00;;;13.00;99.90;;;;;;5051254;28;20500;-71
2021/10/27 02:33:53;;;;;;;9.30;7.10;;;13.10;99.90;;;;;;5051344;28;20591;-72
2021/10/27 02:36:19;;;;;;;9.30;7.57;;;13.10;99.90;;;;;;5051222;28;20173;-72
2021/10/27 02:38:45;;;;;;;9.40;7.50;;;13.10;99.90;;;;;;5033637;28;20187;-72
2021/10/27 02:41:12;;;;;;;8.43;7.00;;;13.10;99.90;;;;;;5051080;28;20453;-71
2021/10/27 02:43:38;;;;;;;8.23;6.87;;;13.20;99.90;;;;;;5051232;28;20421;-71
2021/10/27 02:46:04;;;;;;;10.93;6.90;;;13.20;99.90;;;;;;5050883;28;20931;-71
2021/10/27 02:48:30;;;;;;;7.20;6.33;;;13.20;99.90;;;;;;5033742;28;20453;-72
2021/10/27 02:50:55;;;;;;;7.33;6.33;;;13.20;99.90;;;;;;5051312;28;20197;-72
2021/10/27 02:53:21;;;;;;;7.50;6.57;;;13.30;99.90;;;;;;5051360;28;20178;-71
2021/10/27 02:55:46;;;;;;;6.80;6.10;;;13.30;99.90;;;;;;5032937;28;20652;-71
2021/10/27 02:58:12;;;;;;;9.27;5.77;;;13.30;99.90;;;;;;5033496;28;20669;-72
2021/10/27 03:00:37;;;;;;;7.00;5.93;;;13.30;99.90;;;;;;5033267;28;20198;-72
2021/10/27 03:03:03;;;;;;;9.10;5.60;;;13.30;99.90;;;;;;5051124;28;20174;-72
2021/10/27 03:05:31;;;;;;;6.07;5.47;;;13.30;99.90;;;;;;5050876;28;20748;-72
2021/10/27 03:07:57;;;;;;;7.07;5.77;;;13.20;99.90;;;;;;5033387;28;20547;-72
2021/10/27 03:10:22;;;;;;;9.47;6.17;;;13.20;99.90;;;;;;5051096;28;20460;-73
2021/10/27 03:12:48;;;;;;;5.40;4.90;;;13.20;99.90;;;;;;5033273;28;20189;-72
2021/10/27 03:15:14;;;;;;;6.30;4.70;;;13.10;99.90;;;;;;5051438;28;20253;-72
2021/10/27 03:17:39;;;;;;;6.73;5.57;;;13.10;99.90;;;;;;5054482;28;20451;-72
2021/10/27 03:20:06;;;;;;;7.07;5.47;;;13.10;99.90;;;;;;5054814;28;20204;-72
2021/10/27 03:22:31;;;;;;;7.00;5.60;;;13.20;99.90;;;;;;5054713;28;20170;-72
2021/10/27 03:24:57;;;;;;;7.03;5.53;;;13.20;99.90;;;;;;5054501;28;20416;-72
2021/10/27 03:27:23;;;;;;;6.80;5.30;;;13.20;99.90;;;;;;5035286;28;20745;-72
2021/10/27 03:29:48;;;;;;;5.33;4.47;;;13.30;99.90;;;;;;5036594;28;20565;-72
2021/10/27 03:32:14;;;;;;;6.80;4.93;;;13.30;99.90;;;;;;5054474;28;20202;-72
2021/10/27 03:34:40;;;;;;;6.50;5.40;;;13.30;99.90;;;;;;5036636;28;20261;-72
2021/10/27 03:37:07;;;;;;;6.17;5.57;;;13.30;99.90;;;;;;5054605;28;20257;-72
2021/10/27 03:39:33;;;;;;;8.13;5.27;;;13.30;99.90;;;;;;5054688;28;20444;-72
2021/10/27 03:41:58;;;;;;;7.50;5.00;;;13.20;99.90;;;;;;5054238;28;20819;-71
2021/10/27 03:44:24;;;;;;;6.50;4.63;;;13.20;99.90;;;;;;5054265;28;20411;-72
2021/10/27 03:46:51;;;;;;;7.10;4.60;;;13.30;99.90;;;;;;5054428;28;20229;-72
2021/10/27 03:49:18;;;;;;;6.27;5.60;;;13.30;99.90;;;;;;5053817;28;20644;-72
2021/10/27 03:51:43;;;;;;;8.50;4.90;;;13.30;99.90;;;;;;5054114;28;20515;-72
2021/10/27 03:54:09;;;;;;;5.10;3.93;;;13.30;99.90;;;;;;5056648;28;20500;-72
2021/10/27 03:56:34;;;;;;;7.73;4.77;;;13.30;99.90;;;;;;5044844;28;20190;-72
2021/10/27 03:59:00;;;;;;;6.10;4.40;;;13.30;99.90;;;;;;5058982;28;20174;-72
2021/10/27 04:01:26;;;;;;;5.40;4.17;;;13.30;99.90;;;;;;5053884;28;20265;-72
2021/10/27 04:03:51;;;;;;;5.83;5.17;;;13.30;99.90;;;;;;5054018;28;20171;-72
2021/10/27 04:06:17;;;;;;;4.80;4.27;;;13.30;99.90;;;;;;5035494;28;20803;-72
2021/10/27 04:08:42;;;;;;;6.47;5.03;;;13.30;99.90;;;;;;5053798;28;20198;-72
2021/10/27 04:11:08;;;;;;;7.00;4.83;;;13.30;99.90;;;;;;5053834;28;20202;-72
2021/10/27 04:13:35;;;;;;;9.00;4.43;;;13.20;99.90;;;;;;5035968;28;20244;-72
2021/10/27 04:16:00;;;;;;;7.70;4.60;;;13.30;99.90;;;;;;5053550;28;20409;-71
2021/10/27 04:18:26;;;;;;;7.07;4.70;;;13.30;99.90;;;;;;5053768;28;20451;-73
2021/10/27 04:20:52;;;;;;;5.50;4.60;;;13.30;99.90;;;;;;5053945;28;20693;-73
2021/10/27 04:23:17;;;;;;;5.97;4.23;;;13.20;99.90;;;;;;5053751;28;20232;-72
2021/10/27 04:25:43;;;;;;;6.03;4.63;;;13.20;99.90;;;;;;5053230;28;20174;-73
2021/10/27 04:28:08;;;;;;;5.47;4.43;;;13.20;99.90;;;;;;5052850;28;20684;-72
2021/10/27 04:30:34;;;;;;;4.80;4.00;;;13.20;99.90;;;;;;5053678;28;20588;-73
2021/10/27 04:33:00;;;;;;;7.13;4.23;;;13.20;99.90;;;;;;5053667;28;20167;-72
2021/10/27 04:35:26;;;;;;;4.83;4.33;;;13.20;99.90;;;;;;5053321;28;20771;-72
2021/10/27 04:37:53;;;;;;;5.73;4.50;;;13.20;99.90;;;;;;5053356;28;20473;-73
2021/10/27 04:40:19;;;;;;;6.67;5.10;;;13.20;99.90;;;;;;5053269;28;20202;-73
2021/10/27 04:42:46;;;;;;;6.60;4.70;;;13.20;99.90;;;;;;5053397;28;20481;-72
2021/10/27 04:45:12;;;;;;;5.33;4.57;;;13.20;99.90;;;;;;5034959;28;20428;-72
2021/10/27 04:47:38;;;;;;;6.00;4.47;;;13.20;99.90;;;;;;5053145;28;20965;-73
2021/10/27 04:50:08;;;;;;;5.13;4.63;;;13.20;99.90;;;;;;5053197;28;20830;-73
2021/10/27 04:52:34;;;;;;;6.20;5.33;;;13.20;99.90;;;;;;5053695;28;20401;-72
2021/10/27 04:54:59;;;;;;;7.77;4.50;;;13.20;99.90;;;;;;5035357;28;20431;-73
2021/10/27 04:57:25;;;;;;;5.40;4.90;;;13.20;99.90;;;;;;5035220;28;20251;-73
2021/10/27 04:59:51;;;;;;;4.80;4.20;;;13.20;99.90;;;;;;5052761;28;20224;-72
2021/10/27 05:02:17;;;;;;;5.30;4.50;;;13.20;99.90;;;;;;5063026;28;20221;-73
2021/10/27 05:04:44;;;;;;;5.57;4.47;;;13.20;99.90;;;;;;5057522;28;20197;-73
2021/10/27 05:07:13;;;;;;;5.30;4.80;;;13.20;99.90;;;;;;5061019;28;20959;-72
2021/10/27 05:09:39;;;;;;;7.37;4.87;;;13.20;99.90;;;;;;5059728;28;20423;-72
2021/10/27 05:12:05;;;;;;;7.40;4.60;;;13.30;99.90;;;;;;5060567;28;20528;-73
2021/10/27 05:14:32;;;;;;;5.40;4.90;;;13.30;99.90;;;;;;5046519;28;20944;-71
2021/10/27 05:16:57;;;;;;;5.50;4.80;;;13.30;99.90;;;;;;5058041;28;20443;-72
2021/10/27 05:19:23;;;;;;;7.27;5.37;;;13.20;99.90;;;;;;5059476;28;21068;-73
2021/10/27 05:21:49;;;;;;;4.70;4.30;;;13.20;99.90;;;;;;5041551;28;20689;-73
2021/10/27 05:24:15;;;;;;;6.57;5.07;;;13.20;99.90;;;;;;5063721;28;20221;-73
2021/10/27 05:26:40;;;;;;;5.33;4.83;;;13.20;99.90;;;;;;5056429;28;20206;-73
2021/10/27 05:29:06;;;;;;;5.97;4.90;;;13.10;99.90;;;;;;5054681;28;20249;-73
2021/10/27 05:31:31;;;;;;;5.90;4.90;;;13.10;99.90;;;;;;5055920;28;20209;-73
2021/10/27 05:33:57;;;;;;;5.77;5.20;;;13.10;99.90;;;;;;5050256;28;20198;-73
2021/10/27 05:36:22;;;;;;;5.38;4.70;;;13.10;99.90;;;;;;5047993;28;20402;-72
2021/10/27 05:38:48;;;;;;;7.80;5.00;;;13.20;99.90;;;;;;5050310;28;20681;-72
2021/10/27 05:41:13;;;;;;;7.77;5.90;;;13.20;99.90;;;;;;5050490;28;20249;-72
2021/10/27 05:43:39;;;;;;;10.60;5.77;;;13.20;99.90;;;;;;5049052;28;20546;-71
2021/10/27 05:46:05;;;;;;;9.43;5.40;;;13.20;99.90;;;;;;5049530;28;20220;-71
2021/10/27 05:48:39;;;;;;;9.90;5.33;;;13.20;99.90;;;;;;5052180;28;20575;-71
2021/10/27 05:56:20;;;;;;;5.60;4.80;;;13.30;99.90;;;;;;5042444;28;20459;-73
2021/10/27 05:58:47;;;;;;;7.00;5.90;;;13.30;99.90;;;;;;5041505;28;20479;-73
2021/10/27 06:01:13;;;;;;;6.57;5.77;;;13.30;99.90;;;;;;5049985;28;21052;-73
2021/10/27 06:03:38;;;;;;;6.00;5.00;;;13.30;99.90;;;;;;5046961;28;20509;-73
2021/10/27 06:06:04;;;;;;;5.73;5.23;;;13.30;99.90;;;;;;5048711;28;20564;-73
2021/10/27 06:08:30;;;;;;;6.33;5.60;;;13.30;99.90;;;;;;5030187;28;20293;-73
2021/10/27 06:10:58;;;;;;;8.23;5.13;;;13.20;99.90;;;;;;5048360;28;20190;-72
2021/10/27 06:13:32;;;;;;;6.33;5.40;;;13.30;99.90;;;;;;5048996;28;20669;-73
2021/10/27 06:15:57;;;;;;;9.60;5.80;;;13.30;99.90;;;;;;5048630;28;20397;-72
2021/10/27 06:18:23;;;;;;;6.63;5.50;;;13.40;99.90;;;;;;5048047;28;20416;-75
2021/10/27 06:20:49;;;;;;;6.30;5.70;;;13.30;99.90;;;;;;5030522;28;20198;-73
2021/10/27 06:23:15;;;;;;;8.13;5.80;;;13.40;99.90;;;;;;5049790;28;20542;-73
2021/10/27 06:25:41;;;;;;;5.87;5.27;;;13.40;99.90;;;;;;5048947;28;20919;-73
2021/10/27 06:28:12;;;;;;;18.63;6.27;;;13.30;99.90;;;;;;5048939;28;20216;-72
2021/10/27 06:30:52;;;;;;;5.90;5.30;;;13.30;99.90;;;;;;5048730;28;20190;-73
2021/10/27 06:35:52;;;;;;;9.40;5.57;;;13.40;99.90;;;;;;5048436;28;20408;-73
2021/10/27 06:38:33;;;;;;;6.37;5.77;;;13.30;99.90;;;;;;5048488;28;20784;-73
2021/10/27 06:48:52;;;;;;;6.17;5.57;;;13.40;99.90;;;;;;5074170;28;20455;-72
2021/10/27 06:51:18;;;;;;;9.23;6.00;;;13.40;99.90;;;;;;5070664;28;20197;-73
2021/10/27 06:53:44;;;;;;;5.87;5.17;;;13.40;99.90;;;;;;5072621;28;20177;-73
2021/10/27 06:56:13;;;;;;;6.53;5.03;;;13.40;99.90;;;;;;5072070;28;20174;-73
2021/10/27 06:58:46;;;;;;;6.30;4.90;;;13.40;99.90;;;;;;5072339;28;20593;-73
2021/10/27 07:17:15;;;;;;;6.50;5.00;;;13.40;99.90;;;;;;5072189;28;20423;-73
2021/10/27 07:19:41;;;;;;;6.70;5.17;;;13.40;99.90;;;;;;5053999;28;20909;-73
2021/10/27 07:22:07;;;;;;;5.13;4.63;;;13.50;99.90;;;;;;5072181;28;20504;-74
2021/10/27 07:24:33;;;;;;;7.30;5.30;;;13.50;99.90;;;;;;5053580;28;20419;-74
2021/10/27 07:27:04;;;;;;;7.20;4.83;;;13.50;99.90;;;;;;5071708;28;20455;-73
2021/10/27 07:29:29;;;;;;;9.03;5.60;;;13.50;99.90;;;;;;5071782;28;20762;-74
2021/10/27 07:31:55;;;;;;;5.10;4.60;;;13.50;99.90;;;;;;5072236;28;20443;-74
2021/10/27 07:34:30;;;;;;;8.87;4.83;;;13.50;99.90;;;;;;5071587;28;20211;-73
2021/10/27 07:42:23;;;;;;;7.57;5.10;;;13.40;99.90;;;;;;5073839;28;20458;-74
2021/10/27 07:44:49;;;;;;;5.30;4.90;;;13.40;99.90;;;;;;5073739;28;20424;-75
2021/10/27 07:47:15;;;;;;;5.20;4.70;;;13.40;99.90;;;;;;5071764;28;20244;-74
2021/10/27 07:49:41;;;;;;;5.37;4.87;;;13.40;99.90;;;;;;5071259;28;20193;-74
2021/10/27 07:52:07;;;;;;;8.73;4.50;;;13.40;99.90;;;;;;5071439;28;20194;-74
2021/10/27 07:54:33;;;;;;;8.03;5.00;;;13.50;99.90;;;;;;5053046;28;20458;-74
2021/10/27 07:56:59;;;;;;;5.33;4.73;;;13.50;99.90;;;;;;5071150;28;20421;-75
2021/10/27 07:59:25;;;;;;;5.97;5.23;;;13.60;99.90;;;;;;5071161;28;20419;-76
2021/10/27 08:01:51;;;;;;;7.90;5.13;;;13.60;99.90;;;;;;5070608;28;20442;-73
2021/10/27 08:04:16;;;;;;;6.07;5.50;;;13.50;99.90;;;;;;5071243;28;20246;-74
2021/10/27 08:06:44;;;;;;;6.10;5.00;;;13.60;99.90;;;;;;5052369;28;20702;-74
2021/10/27 08:09:10;;;;;;;5.83;4.63;;;13.60;99.90;;;;;;5071277;28;20280;-74
2021/10/27 08:11:35;;;;;;;6.07;4.60;;;13.60;99.90;;;;;;5070884;28;20514;-74
2021/10/27 08:14:01;;;;;;;4.97;4.47;;;13.70;99.90;;;;;;5071811;28;20170;-74
2021/10/27 08:16:27;;;;;;;7.57;4.70;;;13.70;99.90;;;;;;5070650;28;20177;-72
2021/10/27 08:18:53;;;;;;;6.37;4.60;;;13.70;99.90;;;;;;5071194;28;20211;-75
2021/10/27 08:21:18;;;;;;;6.17;5.30;;;13.70;99.90;;;;;;5052757;28;20213;-75
2021/10/27 08:23:46;;;;;;;10.13;4.40;;;13.70;99.90;;;;;;5071602;28;20506;-75
2021/10/27 08:26:16;;;;;;;6.93;5.33;;;13.70;99.90;;;;;;5052409;28;20182;-74
2021/10/27 08:28:48;;;;;;;5.47;4.97;;;13.70;99.90;;;;;;5070775;28;20504;-74
2021/10/27 08:31:25;;;;;;;5.67;4.50;;;13.70;99.90;;;;;;5070763;28;20419;-73
2021/10/27 08:36:20;;;;;;;6.07;4.80;;;13.80;99.90;;;;;;5070765;28;20414;-74
2021/10/27 08:38:46;;;;;;;6.67;4.40;;;13.80;99.90;;;;;;5070238;28;20404;-74
2021/10/27 08:41:14;;;;;;;7.97;4.60;;;13.80;99.90;;;;;;5070265;28;20208;-74
2021/10/27 08:43:40;;;;;;;7.05;5.68;;;13.80;99.90;;;;;;5068906;28;20402;-73
2021/10/27 08:46:06;;;;;;;4.73;4.30;;;13.80;99.90;;;;;;5050477;28;20182;-74
2021/10/27 08:48:34;;;;;;;4.83;4.43;;;13.90;99.90;;;;;;5052046;28;20212;-74
2021/10/27 08:51:05;;;;;;;4.80;4.40;;;13.90;99.90;;;;;;5071234;28;20432;-74
2021/10/27 08:53:31;;;;;;;8.00;4.60;;;14.00;99.90;;;;;;5070570;28;20569;-73
2021/10/27 08:56:02;;;;;;;4.90;4.33;;;14.00;99.90;;;;;;5052499;28;20783;-73
2021/10/27 08:58:33;;;;;;;5.10;4.60;;;14.10;99.90;;;;;;5069330;28;20439;-74
2021/10/27 09:01:11;;;;;;;9.40;5.00;;;14.10;99.90;;;;;;5068176;28;21024;-74
2021/10/27 09:15:25;;;;;;;5.33;4.10;;;14.20;99.90;;;;;;4988094;28;20474;-74
2021/10/27 09:35:07;;;;;;;7.63;5.00;;;14.30;99.90;;;;;;4987310;28;20625;-74
2021/10/27 09:37:54;;;;;;;9.07;5.90;;;14.40;99.90;;;;;;4980845;28;20431;-72
2021/10/27 10:05:12;;;;;;;4.70;3.70;;;14.70;99.90;;;;;;5082527;28;20449;-74
2021/10/27 10:07:38;;;;;;;6.40;3.90;;;14.80;99.90;;;;;;5059398;28;20981;-73
2021/10/27 10:10:06;;;;;;;6.67;4.33;;;14.80;99.90;;;;;;5071834;28;20416;-75
2021/10/27 10:12:46;;;;;;;6.00;4.60;;;14.70;99.90;;;;;;5070056;28;20943;-76
2021/10/27 10:15:12;;;;;;;3.97;3.67;;;14.70;99.90;;;;;;5068807;28;20418;-74
2021/10/27 10:17:40;;;;;;;5.50;3.77;;;14.70;99.90;;;;;;5069552;28;20419;-73
2021/10/27 10:20:11;;;;;;;5.70;4.00;;;14.70;99.90;;;;;;5069115;28;20177;-74
2021/10/27 10:22:38;;;;;;;6.93;3.90;;;14.70;99.90;;;;;;5068995;28;20921;-74
2021/10/27 10:25:19;;;;;;;4.90;4.40;;;14.80;99.90;;;;;;5068004;28;20423;-74
2021/10/27 10:27:55;;;;;;;4.23;3.63;;;14.80;99.90;;;;;;5069476;28;20459;-75
2021/10/27 10:30:35;;;;;;;4.60;4.20;;;14.80;99.90;;;;;;5068570;28;20396;-75
2021/10/27 10:33:12;;;;;;;6.53;4.30;;;14.90;99.90;;;;;;5069480;28;20658;-75
2021/10/27 10:36:05;;;;;;;4.47;3.63;;;14.90;99.90;;;;;;5068474;28;20407;-73
2021/10/27 10:45:09;;;;;;;5.10;4.57;;;14.90;99.90;;;;;;5068553;28;20474;-73
2021/10/27 11:01:43;;;;;;;5.17;3.40;;;15.10;99.90;;;;;;5069663;28;20983;-74
2021/10/27 11:24:29;;;;;;;4.93;3.60;;;15.70;99.90;;;;;;5087261;28;20456;-76
2021/10/27 11:27:26;;;;;;;2.83;2.53;;;15.70;99.90;;;;;;5049578;28;20990;-74
2021/10/27 11:39:32;;;;;;;4.60;3.37;;;16.20;99.90;;;;;;5070928;28;20447;-75
2021/10/27 11:41:16;;;;;;;5.27;3.10;;;16.30;99.90;;;;;;5048059;28;20482;-76
2021/10/27 11:44:10;;;;;;;5.20;3.60;;;16.40;99.90;;;;;;5051225;28;20450;-75
2021/10/27 11:47:01;;;;;;;3.70;3.27;;;16.50;99.90;;;;;;5068679;28;20428;-74
2021/10/27 11:49:37;;;;;;;3.30;3.00;;;16.50;99.90;;;;;;5069933;28;20435;-74
2021/10/27 11:52:03;;;;;;;5.83;3.47;;;16.50;99.90;;;;;;5052018;28;20448;-74
2021/10/27 11:54:30;;;;;;;4.93;3.60;;;16.50;99.90;;;;;;5048886;28;20457;-74
2021/10/27 11:56:58;;;;;;;4.97;3.27;;;16.40;99.90;;;;;;5039213;28;20538;-75
2021/10/27 11:59:25;;;;;;;4.67;2.90;;;16.40;99.90;;;;;;5071107;28;20958;-75
2021/10/27 12:01:52;;;;;;;3.30;3.00;;;16.40;99.90;;;;;;5071388;28;20432;-75
2021/10/27 12:04:18;;;;;;;4.40;3.80;;;16.40;99.90;;;;;;5053336;28;20409;-75
2021/10/27 12:12:18;;;;;;;7.00;4.00;;;16.30;99.90;;;;;;5071374;28;20435;-75
2021/10/27 12:18:09;;;;;;;4.00;3.10;;;16.20;99.90;;;;;;5064293;28;20434;-75
2021/10/27 12:20:37;;;;;;;3.40;3.07;;;16.30;99.90;;;;;;5050785;28;20444;-75
2021/10/27 12:23:06;;;;;;;4.87;3.20;;;16.20;99.90;;;;;;5049337;28;20440;-75
2021/10/27 12:25:32;;;;;;;6.03;3.50;;;16.30;99.90;;;;;;5050723;28;20527;-75
2021/10/27 12:28:03;;;;;;;4.30;2.90;;;16.20;99.90;;;;;;5050481;28;20559;-74
2021/10/27 12:30:44;;;;;;;8.20;3.20;;;16.20;99.90;;;;;;5032432;28;20697;-75
2021/10/27 12:33:10;;;;;;;6.10;3.40;;;16.20;99.90;;;;;;5050576;28;20890;-75
2021/10/27 12:35:36;;;;;;;5.00;3.17;;;16.10;99.90;;;;;;5049957;28;20507;-75
2021/10/27 12:38:15;;;;;;;3.70;2.70;;;16.10;99.90;;;;;;5050440;28;20646;-75
2021/10/27 12:40:43;;;;;;;4.57;2.60;;;16.20;99.90;;;;;;5050340;28;20158;-75
2021/10/27 12:43:19;;;;;;;6.20;3.40;;;16.20;99.90;;;;;;5079561;22;20971;-76
2021/10/27 12:45:48;;;;;;;3.60;3.13;;;16.20;99.90;;;;;;5069836;28;20419;-76
2021/10/27 12:48:21;;;;;;;4.80;2.80;;;16.20;99.90;;;;;;5069811;28;20471;-76
2021/10/27 12:51:00;;;;;;;8.00;2.53;;;16.10;99.90;;;;;;5070367;28;20830;-76
2021/10/27 12:53:34;;;;;;;5.10;2.50;;;16.20;99.90;;;;;;5069760;28;20442;-76
2021/10/27 12:56:09;;;;;;;3.40;2.60;;;16.30;99.90;;;;;;5069733;28;20406;-76
2021/10/27 12:58:46;;;;;;;2.60;2.40;;;16.30;99.90;;;;;;5069774;28;20415;-77
2021/10/27 13:01:21;;;;;;;5.33;2.63;;;16.40;99.90;;;;;;5069960;28;20478;-77
2021/10/27 13:19:54;;;;;;;3.03;2.43;;;17.10;99.90;;;;;;5042589;28;20415;-75
2021/10/27 13:30:14;;;;;;;5.43;3.10;;;17.20;99.90;;;;;;5071265;28;20390;-74
2021/10/27 13:32:54;;;;;;;4.50;2.90;;;17.20;99.90;;;;;;5070224;28;20424;-76
2021/10/27 13:35:21;;;;;;;4.53;2.63;;;17.10;99.90;;;;;;5068975;28;20519;-76
2021/10/27 13:37:47;;;;;;;3.60;2.57;;;17.10;99.90;;;;;;5069386;28;20852;-74
2021/10/27 13:40:13;;;;;;;3.30;2.70;;;17.10;99.90;;;;;;5069209;28;20832;-76
2021/10/27 13:48:08;;;;;;;4.50;2.83;;;17.10;99.90;;;;;;5069044;28;20458;-76
2021/10/27 14:06:53;;;;;;;4.63;2.77;;;17.40;99.90;;;;;;5070122;28;20486;-76
2021/10/27 14:10:04;;;;;;;4.97;3.17;;;17.30;99.90;;;;;;5051181;28;20518;-76
2021/10/27 14:14:43;;;;;;;3.57;2.47;;;17.30;99.90;;;;;;5075296;28;20392;-76
2021/10/27 15:20:04;;;;;;;3.67;3.27;;;16.50;99.90;;;;;;5073118;28;20418;-77
2021/10/27 15:28:08;;;;;;;4.63;3.23;;;16.30;99.90;;;;;;5066122;28;20239;-76
2021/10/27 15:33:10;;;;;;;4.00;2.87;;;16.20;99.90;;;;;;5064900;28;20443;-76
2021/10/27 15:43:42;;;;;;;8.83;2.90;;;16.10;99.90;;;;;;5071184;28;20516;-75
2021/10/27 15:51:43;;;;;;;5.33;3.00;;;15.90;99.90;;;;;;5068727;28;20427;-77
2021/10/27 15:54:08;;;;;;;5.20;3.17;;;15.90;99.90;;;;;;5069755;28;20419;-76
2021/10/27 15:56:34;;;;;;;4.97;4.00;;;15.80;99.90;;;;;;5070980;28;20404;-77
2021/10/27 15:59:00;;;;;;;4.77;4.30;;;15.80;99.90;;;;;;5035986;28;20187;-76
2021/10/27 16:01:25;;;;;;;3.87;3.37;;;15.80;99.90;;;;;;5071450;28;20181;-76
2021/10/27 16:03:51;;;;;;;3.40;3.10;;;15.70;99.90;;;;;;5071879;28;20193;-76
2021/10/27 16:06:23;;;;;;;5.00;3.30;;;15.70;99.90;;;;;;5071834;28;20701;-76
2021/10/27 16:08:51;;;;;;;5.33;3.40;;;15.60;99.90;;;;;;5052947;28;20205;-76
2021/10/27 16:11:17;;;;;;;3.10;2.80;;;15.60;99.90;;;;;;5070707;28;20498;-76
2021/10/27 16:13:42;;;;;;;3.70;3.20;;;15.60;99.90;;;;;;5070946;28;20515;-76
2021/10/27 16:16:08;;;;;;;5.00;3.80;;;15.50;99.90;;;;;;5070044;28;20207;-76
2021/10/27 16:18:33;;;;;;;4.00;3.20;;;15.50;99.90;;;;;;5070806;28;20177;-76
2021/10/27 16:21:02;;;;;;;4.63;3.47;;;15.40;99.90;;;;;;5052580;28;20180;-75
2021/10/27 16:23:28;;;;;;;4.47;4.00;;;15.40;99.90;;;;;;5069421;28;20193;-76
2021/10/27 16:25:55;;;;;;;5.07;4.17;;;15.30;99.90;;;;;;5069926;28;20806;-76
2021/10/27 16:28:23;;;;;;;5.17;4.10;;;15.30;99.90;;;;;;5070591;28;20196;-77
2021/10/27 16:30:49;;;;;;;4.50;3.90;;;15.20;99.90;;;;;;5070754;28;20415;-75
2021/10/27 16:33:18;;;;;;;5.70;3.90;;;15.20;99.90;;;;;;5069729;28;20429;-74
2021/10/27 16:35:44;;;;;;;3.57;3.27;;;15.10;99.90;;;;;;5069489;28;20442;-76
2021/10/27 16:38:10;;;;;;;6.97;4.10;;;15.10;99.90;;;;;;5069285;28;20416;-76
2021/10/27 16:40:36;;;;;;;6.50;4.60;;;15.10;99.90;;;;;;5069324;28;20498;-75
2021/10/27 16:43:02;;;;;;;7.30;4.90;;;15.10;99.90;;;;;;5051284;28;20262;-76
2021/10/27 16:45:29;;;;;;;4.73;3.80;;;15.00;99.90;;;;;;5069884;28;20443;-76
2021/10/27 16:47:55;;;;;;;5.13;4.00;;;15.00;99.90;;;;;;5071944;28;20556;-75
2021/10/27 16:50:20;;;;;;;3.80;3.50;;;15.00;99.90;;;;;;5070794;28;20411;-76
2021/10/27 16:52:47;;;;;;;4.93;4.43;;;15.00;99.90;;;;;;5054025;28;20576;-75
2021/10/27 16:55:20;;;;;;;5.40;4.50;;;14.90;99.90;;;;;;5053428;28;20252;-76
2021/10/27 16:57:48;;;;;;;5.73;4.17;;;14.90;99.90;;;;;;5072191;28;20393;-75
2021/10/27 17:00:15;;;;;;;4.97;4.47;;;14.80;99.90;;;;;;5071813;28;20933;-76
2021/10/27 17:02:41;;;;;;;5.23;4.13;;;14.80;99.90;;;;;;5071477;28;20546;-76
2021/10/27 17:05:08;;;;;;;8.60;5.00;;;14.80;99.90;;;;;;5051654;28;20415;-77
2021/10/27 17:07:34;;;;;;;5.37;4.73;;;14.70;99.90;;;;;;5071350;28;20985;-75
2021/10/27 17:10:01;;;;;;;4.87;4.47;;;14.70;99.90;;;;;;5070974;28;20467;-76
2021/10/27 17:12:26;;;;;;;5.03;4.50;;;14.70;99.90;;;;;;5070635;28;20431;-76
2021/10/27 17:14:52;;;;;;;4.30;3.93;;;14.60;99.90;;;;;;5071203;28;20458;-76
2021/10/27 17:17:18;;;;;;;5.43;4.23;;;14.60;99.90;;;;;;5071817;28;20264;-76
2021/10/27 17:19:44;;;;;;;5.00;4.50;;;14.60;99.90;;;;;;5052479;28;20174;-75
2021/10/27 17:22:11;;;;;;;5.83;4.60;;;14.50;99.90;;;;;;5071050;28;20190;-76
2021/10/27 17:24:37;;;;;;;6.17;4.50;;;14.50;99.90;;;;;;5072291;28;20972;-77
2021/10/27 17:27:03;;;;;;;6.23;4.73;;;14.50;99.90;;;;;;5052895;28;20412;-76
2021/10/27 17:29:31;;;;;;;5.47;4.00;;;14.50;99.90;;;;;;5070939;28;20392;-76
2021/10/27 17:31:56;;;;;;;7.33;4.40;;;14.40;99.90;;;;;;5073116;28;20427;-76